sensor_id;sensor_type;location;lat;lon;timestamp;P1;durP1;ratioP1;P2;durP2;ratioP2
60416;SDS011;46263;44.726;10.396;2023-03-01T00:01:48;29.25;;;19.17;;
60416;SDS011;46263;44.726;10.396;2023-03-01T00:04:14;26.70;;;18.52;;
60416;SDS011;46263;44.726;10.396;2023-03-01T00:06:39;32.05;;;19.55;;
60416;SDS011;46263;44.726;10.396;2023-03-01T00:09:05;31.30;;;21.23;;
60416;SDS011;46263;44.726;10.396;2023-03-01T00:11:31;29.40;;;20.40;;
60416;SDS011;46263;44.726;10.396;2023-03-01T00:13:57;32.90;;;20.25;;
60416;SDS011;46263;44.726;10.396;2023-03-01T00:16:29;28.80;;;19.05;;
60416;SDS011;46263;44.726;10.396;2023-03-01T00:19:01;27.45;;;18.10;;
60416;SDS011;46263;44.726;10.396;2023-03-01T00:21:27;30.17;;;19.20;;
60416;SDS011;46263;44.726;10.396;2023-03-01T00:23:53;26.77;;;18.52;;
60416;SDS011;46263;44.726;10.396;2023-03-01T00:26:20;29.58;;;18.40;;
60416;SDS011;46263;44.726;10.396;2023-03-01T00:28:49;29.63;;;19.50;;
60416;SDS011;46263;44.726;10.396;2023-03-01T00:31:15;27.50;;;18.90;;
60416;SDS011;46263;44.726;10.396;2023-03-01T00:33:43;29.52;;;19.73;;
60416;SDS011;46263;44.726;10.396;2023-03-01T00:36:09;27.20;;;19.98;;
60416;SDS011;46263;44.726;10.396;2023-03-01T00:38:40;28.00;;;19.00;;
60416;SDS011;46263;44.726;10.396;2023-03-01T00:41:07;27.80;;;19.40;;
60416;SDS011;46263;44.726;10.396;2023-03-01T00:43:38;25.85;;;18.08;;
60416;SDS011;46263;44.726;10.396;2023-03-01T00:46:04;28.33;;;19.50;;
60416;SDS011;46263;44.726;10.396;2023-03-01T00:48:31;26.75;;;18.00;;
60416;SDS011;46263;44.726;10.396;2023-03-01T00:50:57;24.85;;;17.85;;
60416;SDS011;46263;44.726;10.396;2023-03-01T00:53:32;25.40;;;18.73;;
60416;SDS011;46263;44.726;10.396;2023-03-01T00:55:59;27.52;;;18.67;;
60416;SDS011;46263;44.726;10.396;2023-03-01T00:58:24;30.50;;;18.63;;
60416;SDS011;46263;44.726;10.396;2023-03-01T01:00:50;27.67;;;18.20;;
60416;SDS011;46263;44.726;10.396;2023-03-01T01:03:17;27.88;;;18.98;;
60416;SDS011;46263;44.726;10.396;2023-03-01T01:05:42;27.55;;;17.90;;
60416;SDS011;46263;44.726;10.396;2023-03-01T01:08:08;25.10;;;17.48;;
60416;SDS011;46263;44.726;10.396;2023-03-01T01:10:34;23.90;;;16.85;;
60416;SDS011;46263;44.726;10.396;2023-03-01T01:13:00;22.80;;;16.00;;
60416;SDS011;46263;44.726;10.396;2023-03-01T01:15:26;24.13;;;15.02;;
60416;SDS011;46263;44.726;10.396;2023-03-01T01:17:51;21.67;;;14.90;;
60416;SDS011;46263;44.726;10.396;2023-03-01T01:20:17;21.33;;;13.95;;
60416;SDS011;46263;44.726;10.396;2023-03-01T01:22:43;20.30;;;14.45;;
60416;SDS011;46263;44.726;10.396;2023-03-01T01:25:08;23.33;;;14.50;;
60416;SDS011;46263;44.726;10.396;2023-03-01T01:27:34;21.48;;;14.10;;
60416;SDS011;46263;44.726;10.396;2023-03-01T01:30:00;20.60;;;13.50;;
60416;SDS011;46263;44.726;10.396;2023-03-01T01:32:25;20.67;;;14.32;;
60416;SDS011;46263;44.726;10.396;2023-03-01T01:34:51;18.58;;;13.02;;
60416;SDS011;46263;44.726;10.396;2023-03-01T01:37:16;22.83;;;15.23;;
60416;SDS011;46263;44.726;10.396;2023-03-01T01:39:41;21.95;;;13.73;;
60416;SDS011;46263;44.726;10.396;2023-03-01T01:42:12;22.85;;;13.98;;
60416;SDS011;46263;44.726;10.396;2023-03-01T01:44:42;21.05;;;14.30;;
60416;SDS011;46263;44.726;10.396;2023-03-01T01:47:13;22.38;;;14.07;;
60416;SDS011;46263;44.726;10.396;2023-03-01T01:49:45;22.10;;;14.73;;
60416;SDS011;46263;44.726;10.396;2023-03-01T01:52:14;23.73;;;14.48;;
60416;SDS011;46263;44.726;10.396;2023-03-01T01:54:49;23.27;;;14.18;;
60416;SDS011;46263;44.726;10.396;2023-03-01T01:58:01;21.25;;;14.75;;
60416;SDS011;46263;44.726;10.396;2023-03-01T02:00:12;27.23;;;15.90;;
60416;SDS011;46263;44.726;10.396;2023-03-01T02:02:40;24.30;;;14.65;;
60416;SDS011;46263;44.726;10.396;2023-03-01T02:05:12;23.17;;;15.68;;
60416;SDS011;46263;44.726;10.396;2023-03-01T02:07:47;21.25;;;14.85;;
60416;SDS011;46263;44.726;10.396;2023-03-01T02:10:14;22.88;;;15.27;;
60416;SDS011;46263;44.726;10.396;2023-03-01T02:12:40;19.83;;;14.63;;
60416;SDS011;46263;44.726;10.396;2023-03-01T02:15:06;24.27;;;14.80;;
60416;SDS011;46263;44.726;10.396;2023-03-01T02:17:31;25.77;;;15.50;;
60416;SDS011;46263;44.726;10.396;2023-03-01T02:27:29;22.00;;;13.80;;
60416;SDS011;46263;44.726;10.396;2023-03-01T02:30:01;24.35;;;13.95;;
60416;SDS011;46263;44.726;10.396;2023-03-01T02:32:27;21.88;;;14.25;;
60416;SDS011;46263;44.726;10.396;2023-03-01T02:34:54;19.73;;;12.95;;
60416;SDS011;46263;44.726;10.396;2023-03-01T02:37:21;23.48;;;13.82;;
60416;SDS011;46263;44.726;10.396;2023-03-01T02:39:50;22.10;;;13.48;;
60416;SDS011;46263;44.726;10.396;2023-03-01T02:42:23;24.88;;;14.68;;
60416;SDS011;46263;44.726;10.396;2023-03-01T02:44:55;20.50;;;14.15;;
60416;SDS011;46263;44.726;10.396;2023-03-01T02:47:21;20.48;;;13.75;;
60416;SDS011;46263;44.726;10.396;2023-03-01T02:49:47;21.13;;;14.02;;
60416;SDS011;46263;44.726;10.396;2023-03-01T02:52:24;21.15;;;14.05;;
60416;SDS011;46263;44.726;10.396;2023-03-01T02:57:31;23.48;;;13.30;;
60416;SDS011;46263;44.726;10.396;2023-03-01T02:59:59;19.75;;;13.73;;
60416;SDS011;46263;44.726;10.396;2023-03-01T03:02:32;21.92;;;14.13;;
60416;SDS011;46263;44.726;10.396;2023-03-01T03:05:08;19.67;;;13.52;;
60416;SDS011;46263;44.726;10.396;2023-03-01T03:07:39;20.73;;;13.77;;
60416;SDS011;46263;44.726;10.396;2023-03-01T03:10:08;20.83;;;13.88;;
60416;SDS011;46263;44.726;10.396;2023-03-01T03:12:36;22.35;;;14.77;;
60416;SDS011;46263;44.726;10.396;2023-03-01T03:15:03;21.40;;;13.63;;
60416;SDS011;46263;44.726;10.396;2023-03-01T03:17:34;24.80;;;14.57;;
60416;SDS011;46263;44.726;10.396;2023-03-01T03:20:01;22.75;;;14.80;;
60416;SDS011;46263;44.726;10.396;2023-03-01T03:22:28;24.33;;;15.15;;
60416;SDS011;46263;44.726;10.396;2023-03-01T03:24:54;21.73;;;13.98;;
60416;SDS011;46263;44.726;10.396;2023-03-01T03:27:19;22.60;;;14.75;;
60416;SDS011;46263;44.726;10.396;2023-03-01T03:29:45;21.77;;;13.82;;
60416;SDS011;46263;44.726;10.396;2023-03-01T03:32:10;22.88;;;15.05;;
60416;SDS011;46263;44.726;10.396;2023-03-01T03:34:36;22.92;;;14.65;;
60416;SDS011;46263;44.726;10.396;2023-03-01T03:37:01;19.88;;;13.70;;
60416;SDS011;46263;44.726;10.396;2023-03-01T03:39:27;21.17;;;14.55;;
60416;SDS011;46263;44.726;10.396;2023-03-01T03:41:54;22.17;;;13.45;;
60416;SDS011;46263;44.726;10.396;2023-03-01T03:44:20;20.40;;;13.23;;
60416;SDS011;46263;44.726;10.396;2023-03-01T03:46:46;21.70;;;13.73;;
60416;SDS011;46263;44.726;10.396;2023-03-01T03:49:11;22.58;;;13.98;;
60416;SDS011;46263;44.726;10.396;2023-03-01T03:51:37;20.38;;;13.68;;
60416;SDS011;46263;44.726;10.396;2023-03-01T03:54:02;22.67;;;13.93;;
60416;SDS011;46263;44.726;10.396;2023-03-01T03:56:28;21.17;;;13.73;;
60416;SDS011;46263;44.726;10.396;2023-03-01T03:58:53;23.20;;;13.70;;
60416;SDS011;46263;44.726;10.396;2023-03-01T04:01:19;20.23;;;13.50;;
60416;SDS011;46263;44.726;10.396;2023-03-01T04:03:45;19.77;;;13.88;;
60416;SDS011;46263;44.726;10.396;2023-03-01T04:06:12;19.95;;;13.50;;
60416;SDS011;46263;44.726;10.396;2023-03-01T04:08:38;20.75;;;13.93;;
60416;SDS011;46263;44.726;10.396;2023-03-01T04:11:04;18.73;;;13.18;;
60416;SDS011;46263;44.726;10.396;2023-03-01T04:13:49;21.60;;;13.32;;
60416;SDS011;46263;44.726;10.396;2023-03-01T04:16:16;21.00;;;14.05;;
60416;SDS011;46263;44.726;10.396;2023-03-01T04:18:42;20.65;;;13.40;;
60416;SDS011;46263;44.726;10.396;2023-03-01T04:21:08;22.13;;;14.55;;
60416;SDS011;46263;44.726;10.396;2023-03-01T04:23:35;20.90;;;13.77;;
60416;SDS011;46263;44.726;10.396;2023-03-01T04:26:01;21.60;;;13.95;;
60416;SDS011;46263;44.726;10.396;2023-03-01T04:28:27;26.88;;;13.93;;
60416;SDS011;46263;44.726;10.396;2023-03-01T04:33:37;24.55;;;15.80;;
60416;SDS011;46263;44.726;10.396;2023-03-01T04:36:03;20.98;;;14.70;;
60416;SDS011;46263;44.726;10.396;2023-03-01T04:38:30;20.63;;;14.40;;
60416;SDS011;46263;44.726;10.396;2023-03-01T04:40:55;20.42;;;14.60;;
60416;SDS011;46263;44.726;10.396;2023-03-01T04:43:21;24.00;;;15.40;;
60416;SDS011;46263;44.726;10.396;2023-03-01T04:45:46;21.15;;;15.05;;
60416;SDS011;46263;44.726;10.396;2023-03-01T04:48:11;22.50;;;15.18;;
60416;SDS011;46263;44.726;10.396;2023-03-01T04:50:37;21.27;;;15.00;;
60416;SDS011;46263;44.726;10.396;2023-03-01T04:53:02;21.42;;;14.38;;
60416;SDS011;46263;44.726;10.396;2023-03-01T04:55:28;25.55;;;15.35;;
60416;SDS011;46263;44.726;10.396;2023-03-01T04:57:54;22.48;;;16.00;;
60416;SDS011;46263;44.726;10.396;2023-03-01T05:00:20;24.38;;;15.23;;
60416;SDS011;46263;44.726;10.396;2023-03-01T05:02:50;23.35;;;15.77;;
60416;SDS011;46263;44.726;10.396;2023-03-01T05:05:33;23.65;;;15.73;;
60416;SDS011;46263;44.726;10.396;2023-03-01T05:08:02;22.40;;;15.45;;
60416;SDS011;46263;44.726;10.396;2023-03-01T05:10:30;20.83;;;14.23;;
60416;SDS011;46263;44.726;10.396;2023-03-01T05:12:56;23.45;;;15.23;;
60416;SDS011;46263;44.726;10.396;2023-03-01T05:15:23;23.35;;;14.88;;
60416;SDS011;46263;44.726;10.396;2023-03-01T05:17:50;22.27;;;14.18;;
60416;SDS011;46263;44.726;10.396;2023-03-01T05:20:17;23.83;;;14.25;;
60416;SDS011;46263;44.726;10.396;2023-03-01T05:22:43;22.60;;;15.18;;
60416;SDS011;46263;44.726;10.396;2023-03-01T05:25:08;23.30;;;14.90;;
60416;SDS011;46263;44.726;10.396;2023-03-01T05:27:34;23.90;;;14.20;;
60416;SDS011;46263;44.726;10.396;2023-03-01T05:30:01;23.27;;;15.05;;
60416;SDS011;46263;44.726;10.396;2023-03-01T05:32:48;20.85;;;14.00;;
60416;SDS011;46263;44.726;10.396;2023-03-01T05:35:20;20.95;;;13.90;;
60416;SDS011;46263;44.726;10.396;2023-03-01T05:37:47;22.35;;;13.52;;
60416;SDS011;46263;44.726;10.396;2023-03-01T05:40:15;20.77;;;14.40;;
60416;SDS011;46263;44.726;10.396;2023-03-01T05:42:50;20.77;;;13.75;;
60416;SDS011;46263;44.726;10.396;2023-03-01T05:45:18;36.83;;;14.93;;
60416;SDS011;46263;44.726;10.396;2023-03-01T05:47:45;19.98;;;13.68;;
60416;SDS011;46263;44.726;10.396;2023-03-01T05:50:13;22.27;;;13.55;;
60416;SDS011;46263;44.726;10.396;2023-03-01T05:52:44;19.38;;;13.02;;
60416;SDS011;46263;44.726;10.396;2023-03-01T05:55:14;19.95;;;13.02;;
60416;SDS011;46263;44.726;10.396;2023-03-01T05:57:43;22.50;;;14.63;;
60416;SDS011;46263;44.726;10.396;2023-03-01T06:00:10;19.88;;;12.98;;
60416;SDS011;46263;44.726;10.396;2023-03-01T06:02:36;18.55;;;13.57;;
60416;SDS011;46263;44.726;10.396;2023-03-01T06:05:03;22.00;;;14.02;;
60416;SDS011;46263;44.726;10.396;2023-03-01T06:07:30;20.10;;;13.25;;
60416;SDS011;46263;44.726;10.396;2023-03-01T06:09:56;24.27;;;14.32;;
60416;SDS011;46263;44.726;10.396;2023-03-01T06:12:21;18.15;;;13.00;;
60416;SDS011;46263;44.726;10.396;2023-03-01T06:14:47;20.17;;;13.93;;
60416;SDS011;46263;44.726;10.396;2023-03-01T06:17:13;21.92;;;14.57;;
60416;SDS011;46263;44.726;10.396;2023-03-01T06:19:38;20.75;;;13.73;;
60416;SDS011;46263;44.726;10.396;2023-03-01T06:22:04;21.20;;;13.60;;
60416;SDS011;46263;44.726;10.396;2023-03-01T06:24:29;23.38;;;13.07;;
60416;SDS011;46263;44.726;10.396;2023-03-01T06:26:55;24.08;;;14.32;;
60416;SDS011;46263;44.726;10.396;2023-03-01T06:29:21;24.40;;;14.43;;
60416;SDS011;46263;44.726;10.396;2023-03-01T06:31:47;24.17;;;14.52;;
60416;SDS011;46263;44.726;10.396;2023-03-01T06:34:13;20.20;;;13.32;;
60416;SDS011;46263;44.726;10.396;2023-03-01T06:36:39;20.90;;;13.40;;
60416;SDS011;46263;44.726;10.396;2023-03-01T06:39:04;23.15;;;12.98;;
60416;SDS011;46263;44.726;10.396;2023-03-01T06:41:30;19.10;;;11.73;;
60416;SDS011;46263;44.726;10.396;2023-03-01T06:43:56;18.80;;;12.68;;
60416;SDS011;46263;44.726;10.396;2023-03-01T06:46:22;17.73;;;12.82;;
60416;SDS011;46263;44.726;10.396;2023-03-01T06:48:47;19.13;;;12.20;;
60416;SDS011;46263;44.726;10.396;2023-03-01T06:51:12;20.30;;;12.50;;
60416;SDS011;46263;44.726;10.396;2023-03-01T06:53:38;16.83;;;11.35;;
60416;SDS011;46263;44.726;10.396;2023-03-01T06:56:03;20.75;;;12.02;;
60416;SDS011;46263;44.726;10.396;2023-03-01T06:58:29;20.05;;;12.05;;
60416;SDS011;46263;44.726;10.396;2023-03-01T07:00:54;18.08;;;12.30;;
60416;SDS011;46263;44.726;10.396;2023-03-01T07:03:20;17.98;;;12.73;;
60416;SDS011;46263;44.726;10.396;2023-03-01T07:05:48;17.02;;;11.05;;
60416;SDS011;46263;44.726;10.396;2023-03-01T07:08:14;18.15;;;12.30;;
60416;SDS011;46263;44.726;10.396;2023-03-01T07:10:40;21.10;;;12.95;;
60416;SDS011;46263;44.726;10.396;2023-03-01T07:13:05;22.95;;;13.85;;
60416;SDS011;46263;44.726;10.396;2023-03-01T07:15:32;21.95;;;13.82;;
60416;SDS011;46263;44.726;10.396;2023-03-01T07:18:00;23.20;;;13.90;;
60416;SDS011;46263;44.726;10.396;2023-03-01T07:20:26;19.98;;;13.38;;
60416;SDS011;46263;44.726;10.396;2023-03-01T07:22:52;23.35;;;13.88;;
60416;SDS011;46263;44.726;10.396;2023-03-01T07:25:19;21.90;;;13.93;;
60416;SDS011;46263;44.726;10.396;2023-03-01T07:27:48;23.98;;;13.85;;
60416;SDS011;46263;44.726;10.396;2023-03-01T07:30:15;21.10;;;14.85;;
60416;SDS011;46263;44.726;10.396;2023-03-01T07:32:41;20.60;;;13.60;;
60416;SDS011;46263;44.726;10.396;2023-03-01T07:35:06;21.90;;;14.15;;
60416;SDS011;46263;44.726;10.396;2023-03-01T07:37:32;20.63;;;13.60;;
60416;SDS011;46263;44.726;10.396;2023-03-01T07:39:57;19.98;;;12.57;;
60416;SDS011;46263;44.726;10.396;2023-03-01T07:42:23;23.17;;;13.02;;
60416;SDS011;46263;44.726;10.396;2023-03-01T07:44:48;20.67;;;12.60;;
60416;SDS011;46263;44.726;10.396;2023-03-01T07:47:14;21.70;;;13.98;;
60416;SDS011;46263;44.726;10.396;2023-03-01T07:49:39;18.60;;;12.82;;
60416;SDS011;46263;44.726;10.396;2023-03-01T07:52:05;21.05;;;13.98;;
60416;SDS011;46263;44.726;10.396;2023-03-01T07:54:30;20.23;;;13.75;;
60416;SDS011;46263;44.726;10.396;2023-03-01T07:56:56;21.58;;;14.57;;
60416;SDS011;46263;44.726;10.396;2023-03-01T07:59:22;21.55;;;14.52;;
60416;SDS011;46263;44.726;10.396;2023-03-01T08:01:53;21.95;;;15.00;;
60416;SDS011;46263;44.726;10.396;2023-03-01T08:04:19;24.35;;;13.82;;
60416;SDS011;46263;44.726;10.396;2023-03-01T08:06:44;21.58;;;14.20;;
60416;SDS011;46263;44.726;10.396;2023-03-01T08:09:10;21.40;;;14.18;;
60416;SDS011;46263;44.726;10.396;2023-03-01T08:11:35;25.27;;;14.23;;
60416;SDS011;46263;44.726;10.396;2023-03-01T08:14:01;21.45;;;14.45;;
60416;SDS011;46263;44.726;10.396;2023-03-01T08:16:26;21.90;;;14.63;;
60416;SDS011;46263;44.726;10.396;2023-03-01T08:18:52;21.52;;;13.98;;
60416;SDS011;46263;44.726;10.396;2023-03-01T08:21:17;23.38;;;14.02;;
60416;SDS011;46263;44.726;10.396;2023-03-01T08:23:43;21.58;;;13.10;;
60416;SDS011;46263;44.726;10.396;2023-03-01T08:26:17;19.35;;;13.52;;
60416;SDS011;46263;44.726;10.396;2023-03-01T08:28:44;21.88;;;14.50;;
60416;SDS011;46263;44.726;10.396;2023-03-01T08:31:29;22.02;;;14.57;;
60416;SDS011;46263;44.726;10.396;2023-03-01T08:34:04;20.73;;;13.82;;
60416;SDS011;46263;44.726;10.396;2023-03-01T08:36:38;21.63;;;14.43;;
60416;SDS011;46263;44.726;10.396;2023-03-01T08:39:06;22.73;;;15.07;;
60416;SDS011;46263;44.726;10.396;2023-03-01T08:41:33;23.40;;;14.20;;
60416;SDS011;46263;44.726;10.396;2023-03-01T08:43:59;21.05;;;13.60;;
60416;SDS011;46263;44.726;10.396;2023-03-01T08:46:25;21.35;;;14.63;;
60416;SDS011;46263;44.726;10.396;2023-03-01T08:48:52;29.13;;;17.35;;
60416;SDS011;46263;44.726;10.396;2023-03-01T08:51:18;24.27;;;15.35;;
60416;SDS011;46263;44.726;10.396;2023-03-01T08:53:45;20.48;;;14.73;;
60416;SDS011;46263;44.726;10.396;2023-03-01T08:56:11;24.88;;;15.13;;
60416;SDS011;46263;44.726;10.396;2023-03-01T08:58:37;20.15;;;14.73;;
60416;SDS011;46263;44.726;10.396;2023-03-01T09:01:08;22.63;;;15.45;;
60416;SDS011;46263;44.726;10.396;2023-03-01T09:03:37;23.30;;;15.77;;
60416;SDS011;46263;44.726;10.396;2023-03-01T09:06:03;20.52;;;14.18;;
60416;SDS011;46263;44.726;10.396;2023-03-01T09:08:31;21.13;;;14.63;;
60416;SDS011;46263;44.726;10.396;2023-03-01T09:11:01;23.50;;;14.95;;
60416;SDS011;46263;44.726;10.396;2023-03-01T09:13:27;22.90;;;14.05;;
60416;SDS011;46263;44.726;10.396;2023-03-01T09:15:56;22.73;;;14.73;;
60416;SDS011;46263;44.726;10.396;2023-03-01T09:18:22;23.83;;;13.68;;
60416;SDS011;46263;44.726;10.396;2023-03-01T09:20:47;21.80;;;14.38;;
60416;SDS011;46263;44.726;10.396;2023-03-01T09:23:13;25.40;;;14.23;;
60416;SDS011;46263;44.726;10.396;2023-03-01T09:25:38;22.80;;;13.05;;
60416;SDS011;46263;44.726;10.396;2023-03-01T09:28:04;20.40;;;13.07;;
60416;SDS011;46263;44.726;10.396;2023-03-01T09:30:29;18.13;;;12.88;;
60416;SDS011;46263;44.726;10.396;2023-03-01T09:32:56;22.23;;;13.30;;
60416;SDS011;46263;44.726;10.396;2023-03-01T09:35:21;19.85;;;13.30;;
60416;SDS011;46263;44.726;10.396;2023-03-01T09:37:47;21.45;;;12.85;;
60416;SDS011;46263;44.726;10.396;2023-03-01T09:40:16;21.60;;;12.80;;
60416;SDS011;46263;44.726;10.396;2023-03-01T09:43:05;19.13;;;11.65;;
60416;SDS011;46263;44.726;10.396;2023-03-01T09:45:39;17.80;;;12.63;;
60416;SDS011;46263;44.726;10.396;2023-03-01T09:48:12;20.73;;;13.18;;
60416;SDS011;46263;44.726;10.396;2023-03-01T09:50:43;20.77;;;12.77;;
60416;SDS011;46263;44.726;10.396;2023-03-01T09:53:15;21.05;;;13.07;;
60416;SDS011;46263;44.726;10.396;2023-03-01T10:06:21;18.98;;;11.57;;
60416;SDS011;46263;44.726;10.396;2023-03-01T10:08:55;22.98;;;12.55;;
60416;SDS011;46263;44.726;10.396;2023-03-01T10:11:36;18.98;;;12.63;;
60416;SDS011;46263;44.726;10.396;2023-03-01T10:14:12;19.13;;;11.85;;
60416;SDS011;46263;44.726;10.396;2023-03-01T10:16:50;17.25;;;11.52;;
60416;SDS011;46263;44.726;10.396;2023-03-01T10:19:28;18.92;;;11.18;;
60416;SDS011;46263;44.726;10.396;2023-03-01T10:21:59;17.92;;;11.25;;
60416;SDS011;46263;44.726;10.396;2023-03-01T10:24:31;17.83;;;11.50;;
60416;SDS011;46263;44.726;10.396;2023-03-01T10:27:22;18.75;;;11.68;;
60416;SDS011;46263;44.726;10.396;2023-03-01T10:32:47;16.67;;;10.63;;
60416;SDS011;46263;44.726;10.396;2023-03-01T10:38:04;20.48;;;11.93;;
60416;SDS011;46263;44.726;10.396;2023-03-01T10:40:32;19.88;;;12.45;;
60416;SDS011;46263;44.726;10.396;2023-03-01T10:43:00;19.52;;;12.45;;
60416;SDS011;46263;44.726;10.396;2023-03-01T10:45:36;18.00;;;11.18;;
60416;SDS011;46263;44.726;10.396;2023-03-01T10:50:38;22.27;;;12.35;;
60416;SDS011;46263;44.726;10.396;2023-03-01T10:53:10;19.40;;;13.18;;
60416;SDS011;46263;44.726;10.396;2023-03-01T10:55:56;23.53;;;14.33;;
60416;SDS011;46263;44.726;10.396;2023-03-01T10:58:59;17.25;;;12.48;;
60416;SDS011;46263;44.726;10.396;2023-03-01T11:01:31;18.60;;;11.75;;
60416;SDS011;46263;44.726;10.396;2023-03-01T11:04:17;21.00;;;11.85;;
60416;SDS011;46263;44.726;10.396;2023-03-01T11:06:43;17.02;;;11.45;;
60416;SDS011;46263;44.726;10.396;2023-03-01T11:11:54;17.20;;;10.90;;
60416;SDS011;46263;44.726;10.396;2023-03-01T11:14:22;17.75;;;11.45;;
60416;SDS011;46263;44.726;10.396;2023-03-01T11:17:00;18.33;;;11.18;;
60416;SDS011;46263;44.726;10.396;2023-03-01T11:19:27;17.50;;;11.70;;
60416;SDS011;46263;44.726;10.396;2023-03-01T11:22:00;16.08;;;10.85;;
60416;SDS011;46263;44.726;10.396;2023-03-01T11:24:36;17.98;;;11.10;;
60416;SDS011;46263;44.726;10.396;2023-03-01T11:27:08;15.48;;;10.38;;
60416;SDS011;46263;44.726;10.396;2023-03-01T11:29:43;18.92;;;11.13;;
60416;SDS011;46263;44.726;10.396;2023-03-01T11:32:16;16.55;;;11.18;;
60416;SDS011;46263;44.726;10.396;2023-03-01T11:34:49;17.88;;;11.27;;
60416;SDS011;46263;44.726;10.396;2023-03-01T11:42:43;18.35;;;11.13;;
60416;SDS011;46263;44.726;10.396;2023-03-01T11:45:17;16.55;;;10.93;;
60416;SDS011;46263;44.726;10.396;2023-03-01T11:59:11;17.70;;;11.68;;
60416;SDS011;46263;44.726;10.396;2023-03-01T12:04:52;19.63;;;11.55;;
60416;SDS011;46263;44.726;10.396;2023-03-01T12:07:40;18.65;;;12.10;;
60416;SDS011;46263;44.726;10.396;2023-03-01T12:16:32;21.92;;;13.70;;
60416;SDS011;46263;44.726;10.396;2023-03-01T12:27:26;21.33;;;12.63;;
60416;SDS011;46263;44.726;10.396;2023-03-01T12:30:02;18.38;;;12.93;;
60416;SDS011;46263;44.726;10.396;2023-03-01T12:32:40;22.63;;;13.63;;
60416;SDS011;46263;44.726;10.396;2023-03-01T12:38:33;21.70;;;13.25;;
60416;SDS011;46263;44.726;10.396;2023-03-01T12:49:37;20.33;;;13.43;;
60416;SDS011;46263;44.726;10.396;2023-03-01T12:52:18;20.52;;;13.52;;
60416;SDS011;46263;44.726;10.396;2023-03-01T12:54:52;21.23;;;12.98;;
60416;SDS011;46263;44.726;10.396;2023-03-01T12:57:25;20.55;;;13.95;;
60416;SDS011;46263;44.726;10.396;2023-03-01T13:00:25;20.70;;;12.80;;
60416;SDS011;46263;44.726;10.396;2023-03-01T13:03:04;20.40;;;13.75;;
60416;SDS011;46263;44.726;10.396;2023-03-01T13:11:15;23.13;;;13.40;;
60416;SDS011;46263;44.726;10.396;2023-03-01T13:13:44;21.23;;;13.77;;
60416;SDS011;46263;44.726;10.396;2023-03-01T13:16:21;20.35;;;13.52;;
60416;SDS011;46263;44.726;10.396;2023-03-01T13:21:43;22.65;;;13.85;;
60416;SDS011;46263;44.726;10.396;2023-03-01T13:37:44;23.98;;;14.40;;
60416;SDS011;46263;44.726;10.396;2023-03-01T13:42:49;23.27;;;14.60;;
60416;SDS011;46263;44.726;10.396;2023-03-01T13:45:39;21.98;;;14.13;;
60416;SDS011;46263;44.726;10.396;2023-03-01T13:48:24;24.65;;;15.10;;
60416;SDS011;46263;44.726;10.396;2023-03-01T13:50:53;22.05;;;14.27;;
60416;SDS011;46263;44.726;10.396;2023-03-01T13:53:23;24.08;;;14.70;;
60416;SDS011;46263;44.726;10.396;2023-03-01T13:55:52;21.73;;;14.32;;
60416;SDS011;46263;44.726;10.396;2023-03-01T14:00:59;21.85;;;14.23;;
60416;SDS011;46263;44.726;10.396;2023-03-01T14:03:27;21.75;;;14.10;;
60416;SDS011;46263;44.726;10.396;2023-03-01T14:06:04;21.88;;;14.07;;
60416;SDS011;46263;44.726;10.396;2023-03-01T14:08:31;22.98;;;14.02;;
60416;SDS011;46263;44.726;10.396;2023-03-01T14:13:52;21.45;;;14.40;;
60416;SDS011;46263;44.726;10.396;2023-03-01T14:19:16;24.30;;;14.43;;
60416;SDS011;46263;44.726;10.396;2023-03-01T14:21:46;21.30;;;13.75;;
60416;SDS011;46263;44.726;10.396;2023-03-01T14:24:17;21.63;;;13.07;;
60416;SDS011;46263;44.726;10.396;2023-03-01T14:26:47;24.17;;;13.57;;
60416;SDS011;46263;44.726;10.396;2023-03-01T14:29:27;23.08;;;13.00;;
60416;SDS011;46263;44.726;10.396;2023-03-01T14:32:19;23.75;;;13.75;;
60416;SDS011;46263;44.726;10.396;2023-03-01T14:34:49;19.83;;;12.85;;
60416;SDS011;46263;44.726;10.396;2023-03-01T14:37:20;20.80;;;13.68;;
60416;SDS011;46263;44.726;10.396;2023-03-01T14:39:51;20.33;;;12.52;;
60416;SDS011;46263;44.726;10.396;2023-03-01T14:42:17;21.35;;;13.48;;
60416;SDS011;46263;44.726;10.396;2023-03-01T14:44:46;26.30;;;13.73;;
60416;SDS011;46263;44.726;10.396;2023-03-01T14:47:15;22.30;;;13.38;;
60416;SDS011;46263;44.726;10.396;2023-03-01T14:49:48;23.45;;;13.63;;
60416;SDS011;46263;44.726;10.396;2023-03-01T14:52:22;22.25;;;13.82;;
60416;SDS011;46263;44.726;10.396;2023-03-01T14:54:54;21.52;;;13.05;;
60416;SDS011;46263;44.726;10.396;2023-03-01T14:59:53;23.52;;;13.63;;
60416;SDS011;46263;44.726;10.396;2023-03-01T15:02:23;19.50;;;13.48;;
60416;SDS011;46263;44.726;10.396;2023-03-01T15:04:51;21.30;;;13.15;;
60416;SDS011;46263;44.726;10.396;2023-03-01T15:07:21;28.95;;;17.10;;
60416;SDS011;46263;44.726;10.396;2023-03-01T15:09:51;27.92;;;15.85;;
60416;SDS011;46263;44.726;10.396;2023-03-01T15:15:18;23.17;;;14.13;;
60416;SDS011;46263;44.726;10.396;2023-03-01T15:18:11;21.75;;;13.95;;
60416;SDS011;46263;44.726;10.396;2023-03-01T15:20:38;23.73;;;13.90;;
60416;SDS011;46263;44.726;10.396;2023-03-01T15:23:04;25.70;;;15.02;;
60416;SDS011;46263;44.726;10.396;2023-03-01T15:25:30;25.05;;;15.85;;
60416;SDS011;46263;44.726;10.396;2023-03-01T15:27:57;22.17;;;14.43;;
60416;SDS011;46263;44.726;10.396;2023-03-01T15:30:32;22.42;;;13.70;;
60416;SDS011;46263;44.726;10.396;2023-03-01T15:35:50;23.30;;;15.07;;
60416;SDS011;46263;44.726;10.396;2023-03-01T15:41:29;24.70;;;15.60;;
60416;SDS011;46263;44.726;10.396;2023-03-01T15:43:57;22.80;;;15.63;;
60416;SDS011;46263;44.726;10.396;2023-03-01T15:46:28;21.33;;;15.82;;
60416;SDS011;46263;44.726;10.396;2023-03-01T15:48:58;22.65;;;15.43;;
60416;SDS011;46263;44.726;10.396;2023-03-01T15:51:31;22.75;;;15.02;;
60416;SDS011;46263;44.726;10.396;2023-03-01T15:53:59;21.90;;;13.95;;
60416;SDS011;46263;44.726;10.396;2023-03-01T15:56:27;21.98;;;14.85;;
60416;SDS011;46263;44.726;10.396;2023-03-01T15:58:53;20.95;;;14.38;;
60416;SDS011;46263;44.726;10.396;2023-03-01T16:01:22;19.33;;;13.10;;
60416;SDS011;46263;44.726;10.396;2023-03-01T16:03:48;18.15;;;12.80;;
60416;SDS011;46263;44.726;10.396;2023-03-01T16:06:13;20.08;;;12.15;;
60416;SDS011;46263;44.726;10.396;2023-03-01T16:08:39;19.23;;;12.52;;
60416;SDS011;46263;44.726;10.396;2023-03-01T16:11:05;22.42;;;13.73;;
60416;SDS011;46263;44.726;10.396;2023-03-01T16:13:38;20.80;;;13.05;;
60416;SDS011;46263;44.726;10.396;2023-03-01T16:16:04;21.25;;;13.05;;
60416;SDS011;46263;44.726;10.396;2023-03-01T16:18:30;17.35;;;12.88;;
60416;SDS011;46263;44.726;10.396;2023-03-01T16:20:55;20.33;;;13.10;;
60416;SDS011;46263;44.726;10.396;2023-03-01T16:23:20;20.67;;;13.75;;
60416;SDS011;46263;44.726;10.396;2023-03-01T16:25:49;18.25;;;13.38;;